Time;durP1;ratioP1;P1;durP2;ratioP2;P2;SDS_P1;SDS_P2;PMS_P1;PMS_P2;Temp;Humidity;BMP_temperature;BMP_pressure;BME280_temperature;BME280_humidity;BME280_pressure;Samples;Min_cycle;Max_cycle;Signal;HPM_P1;HPM_P2
2022/04/08 00:01:41;;;;;;;;;1.00;0.00;;;;;11.59;47.63;99966.88;5053734;28;45701;-74
2022/04/08 00:04:07;;;;;;;;;1.00;0.00;;;;;11.72;47.03;99965.81;5053361;28;46284;-71
2022/04/08 00:06:33;;;;;;;;;0.00;0.00;;;;;11.76;47.01;99962.34;5052845;28;45804;-71
2022/04/08 00:08:58;;;;;;;;;1.00;1.00;;;;;11.78;47.13;99957.47;5051521;28;45709;-70
2022/04/08 00:11:23;;;;;;;;;0.33;0.33;;;;;11.77;47.32;99958.53;5052797;28;45420;-71
2022/04/08 00:13:52;;;;;;;;;1.00;1.00;;;;;11.76;47.00;99967.84;5052455;28;45978;-70
2022/04/08 00:16:19;;;;;;;;;1.33;1.33;;;;;11.75;46.76;99968.09;5052499;28;45623;-73
2022/04/08 00:18:45;;;;;;;;;0.00;0.00;;;;;11.75;47.20;99960.69;5044395;28;45608;-71
2022/04/08 00:21:25;;;;;;;;;4.00;1.67;;;;;11.82;47.87;99961.41;5050653;28;46029;-73
2022/04/08 00:23:54;;;;;;;;;0.00;0.00;;;;;11.82;46.94;99952.34;5031998;28;46073;-72
2022/04/08 00:26:20;;;;;;;;;0.67;0.67;;;;;11.80;46.84;99952.56;5032055;28;45321;-73
2022/04/08 00:28:45;;;;;;;;;1.00;1.00;;;;;11.87;46.82;99946.13;5032251;28;45255;-72
2022/04/08 00:31:11;;;;;;;;;3.67;0.00;;;;;11.88;47.12;99953.31;5032317;28;45711;-71
2022/04/08 00:33:37;;;;;;;;;3.00;1.00;;;;;11.93;47.01;99947.97;5014391;28;47690;-72
2022/04/08 00:36:04;;;;;;;;;2.67;1.00;;;;;11.92;47.21;99949.84;5032283;28;45548;-71
2022/04/08 00:38:29;;;;;;;;;0.00;0.00;;;;;11.96;47.52;99952.97;5051714;28;45872;-72
2022/04/08 00:40:55;;;;;;;;;1.00;1.00;;;;;11.95;46.96;99948.56;5051691;28;45689;-72
2022/04/08 00:43:38;;;;;;;;;1.33;0.00;;;;;11.95;47.20;99943.91;5057132;28;45673;-71
2022/04/08 00:46:09;;;;;;;;;0.00;0.00;;;;;11.96;46.66;99939.22;5073277;28;45808;-73
2022/04/08 00:48:36;;;;;;;;;1.33;1.00;;;;;11.97;47.21;99935.41;5072979;28;45512;-73
2022/04/08 00:51:04;;;;;;;;;0.33;0.00;;;;;11.96;46.99;99936.50;5073532;28;45726;-73
2022/04/08 00:53:31;;;;;;;;;2.33;1.00;;;;;11.97;47.21;99935.41;5075898;28;46320;-72
2022/04/08 00:55:57;;;;;;;;;1.00;1.00;;;;;11.98;47.00;99931.59;5076256;28;46006;-73
2022/04/08 00:58:24;;;;;;;;;0.67;0.67;;;;;11.95;47.46;99930.16;5076203;28;45623;-71
2022/04/08 01:00:49;;;;;;;;;1.67;1.67;;;;;11.93;47.65;99925.97;5076058;28;45410;-70
2022/04/08 01:03:15;;;;;;;;;4.00;1.00;;;;;12.00;47.40;99933.03;5075426;28;45772;-71
2022/04/08 01:05:41;;;;;;;;;0.00;0.00;;;;;11.97;47.36;99918.94;5075510;28;45304;-71
2022/04/08 01:08:10;;;;;;;;;3.00;0.00;;;;;12.00;47.56;99927.53;5055643;28;45440;-73
2022/04/08 01:10:37;;;;;;;;;1.67;1.00;;;;;12.01;47.73;99925.63;5054126;28;45932;-70
2022/04/08 01:13:03;;;;;;;;;2.00;0.33;;;;;11.98;47.44;99915.13;5055370;28;45715;-72
2022/04/08 01:15:28;;;;;;;;;2.00;1.00;;;;;12.00;47.05;99919.28;5055124;28;45291;-73
2022/04/08 01:17:53;;;;;;;;;1.00;0.33;;;;;12.07;47.71;99923.84;5055072;28;45322;-70
2022/04/08 01:20:19;;;;;;;;;1.67;1.00;;;;;12.05;47.63;99910.34;5053998;28;45393;-69
2022/04/08 01:22:44;;;;;;;;;0.67;0.00;;;;;12.08;46.91;99915.38;5049905;28;45422;-72
2022/04/08 01:25:12;;;;;;;;;1.67;0.00;;;;;12.07;48.03;99912.84;5054519;28;45594;-69
2022/04/08 01:27:38;;;;;;;;;0.67;0.67;;;;;12.05;47.69;99910.34;5037380;28;45431;-70
2022/04/08 01:30:07;;;;;;;;;2.00;1.00;;;;;11.99;47.66;99908.53;5055608;28;45784;-73
2022/04/08 01:32:32;;;;;;;;;2.00;0.00;;;;;11.97;47.39;99906.03;5037413;28;47183;-69
2022/04/08 01:34:58;;;;;;;;;1.00;1.00;;;;;11.94;48.15;99905.69;5055640;28;45449;-69
2022/04/08 01:37:23;;;;;;;;;1.67;0.00;;;;;11.90;48.14;99907.19;5055312;28;45963;-70
2022/04/08 01:39:49;;;;;;;;;1.00;0.00;;;;;11.85;48.09;99902.41;5054220;28;46049;-70
2022/04/08 01:42:14;;;;;;;;;1.00;1.00;;;;;11.87;48.38;99902.16;5049949;28;48182;-71
2022/04/08 01:44:40;;;;;;;;;1.00;0.00;;;;;11.87;48.17;99897.53;5071261;28;45480;-71
2022/04/08 01:47:06;;;;;;;;;0.00;0.00;;;;;11.92;48.51;99899.56;5075448;28;45499;-69
2022/04/08 01:49:32;;;;;;;;;0.33;0.00;;;;;11.85;47.89;99888.66;5075014;28;45505;-70
2022/04/08 01:51:58;;;;;;;;;0.00;0.00;;;;;11.87;48.50;99888.44;5075317;28;45651;-70
2022/04/08 01:54:23;;;;;;;;;0.67;0.67;;;;;11.88;48.49;99877.22;5071383;28;45394;-70
2022/04/08 01:56:49;;;;;;;;;0.00;0.00;;;;;11.87;48.01;99888.44;5034878;28;45852;-72
2022/04/08 01:59:15;;;;;;;;;2.33;1.33;;;;;11.83;48.80;99874.34;5034257;28;45813;-71
2022/04/08 02:01:41;;;;;;;;;2.00;0.00;;;;;11.84;48.67;99878.75;5016032;28;47249;-70
2022/04/08 02:04:07;;;;;;;;;1.33;0.00;;;;;11.87;48.24;99877.44;5034288;28;45511;-70
2022/04/08 02:06:34;;;;;;;;;2.00;0.00;;;;;11.84;48.60;99876.84;5041875;28;45549;-70
2022/04/08 02:08:59;;;;;;;;;1.00;1.00;;;;;11.93;48.38;99884.75;5053848;28;46122;-71
2022/04/08 02:11:25;;;;;;;;;0.33;0.33;;;;;11.96;48.76;99882.38;5054011;28;45566;-72
2022/04/08 02:13:51;;;;;;;;;1.00;1.00;;;;;11.93;48.23;99879.25;5054150;28;45419;-71
2022/04/08 02:16:16;;;;;;;;;0.00;0.00;;;;;11.86;48.32;99875.78;5054188;28;45377;-71
2022/04/08 02:18:42;;;;;;;;;1.00;1.00;;;;;11.87;48.22;99882.94;5054057;28;45360;-71
2022/04/08 02:21:09;;;;;;;;;1.00;1.00;;;;;11.84;48.41;99874.13;5054075;28;45834;-71
2022/04/08 02:23:36;;;;;;;;;0.00;0.00;;;;;11.81;48.48;99871.84;5054066;28;45431;-71
2022/04/08 02:26:02;;;;;;;;;2.00;0.00;;;;;11.86;48.45;99876.63;5054168;28;45510;-70
2022/04/08 02:28:27;;;;;;;;;0.00;0.00;;;;;11.90;48.80;99875.06;5054053;28;45982;-71
2022/04/08 02:30:54;;;;;;;;;1.00;0.00;;;;;11.92;48.70;99872.91;5053638;28;45717;-71
2022/04/08 02:33:20;;;;;;;;;3.00;0.33;;;;;11.96;48.33;99876.03;5053422;28;45342;-71
2022/04/08 02:35:45;;;;;;;;;1.00;1.00;;;;;11.98;48.58;99868.41;5053773;28;45235;-71
2022/04/08 02:38:11;;;;;;;;;0.00;0.00;;;;;12.00;48.21;99858.00;5053930;28;45319;-70
2022/04/08 02:40:37;;;;;;;;;0.00;0.00;;;;;11.95;48.41;99855.16;5053342;28;46939;-71
2022/04/08 02:43:03;;;;;;;;;2.00;0.00;;;;;11.99;48.54;99859.06;5055459;28;45763;-70
2022/04/08 02:45:29;;;;;;;;;2.33;1.00;;;;;11.92;48.91;99847.34;5074261;28;45832;-71
2022/04/08 02:47:54;;;;;;;;;0.00;0.00;;;;;11.96;48.36;99846.66;5073555;28;45338;-70
2022/04/08 02:50:20;;;;;;;;;2.00;2.00;;;;;11.98;48.45;99849.16;5073524;28;45454;-72
2022/04/08 02:52:45;;;;;;;;;1.67;0.00;;;;;12.03;48.83;99848.44;5073733;28;45522;-69
2022/04/08 02:55:10;;;;;;;;;4.00;1.00;;;;;12.03;48.52;99845.69;5073569;28;45341;-70
2022/04/08 02:57:45;;;;;;;;;2.00;0.00;;;;;12.01;48.36;99837.69;5073587;28;45914;-70
2022/04/08 03:00:15;;;;;;;;;2.00;1.00;;;;;11.99;48.46;99828.84;5073563;28;45723;-71
2022/04/08 03:02:40;;;;;;;;;0.67;0.67;;;;;12.00;48.75;99830.53;5073419;28;45267;-71
2022/04/08 03:05:06;;;;;;;;;1.00;1.00;;;;;12.00;48.65;99830.53;5073947;28;45860;-72
2022/04/08 03:07:32;;;;;;;;;2.00;0.00;;;;;12.05;48.90;99827.03;5039818;28;45323;-74
2022/04/08 03:09:58;;;;;;;;;0.00;0.00;;;;;12.06;48.83;99823.22;5053253;28;46054;-73
2022/04/08 03:12:23;;;;;;;;;0.00;0.00;;;;;12.00;49.23;99814.84;5051762;28;45807;-72
2022/04/08 03:14:48;;;;;;;;;1.67;1.00;;;;;12.04;49.34;99825.41;5052190;28;45913;-74
2022/04/08 03:17:14;;;;;;;;;0.00;0.00;;;;;12.03;49.60;99821.78;5052653;28;45377;-72
2022/04/08 03:19:39;;;;;;;;;2.33;1.00;;;;;12.07;49.21;99817.50;5052070;28;45492;-72
2022/04/08 03:22:06;;;;;;;;;1.00;0.33;;;;;12.06;49.02;99812.25;5052612;28;45746;-71
2022/04/08 03:24:32;;;;;;;;;1.00;1.00;;;;;12.06;49.36;99812.25;5052625;28;45364;-72
2022/04/08 03:26:57;;;;;;;;;1.33;1.00;;;;;12.11;49.30;99815.94;5052758;28;45740;-72
2022/04/08 03:29:23;;;;;;;;;1.00;0.00;;;;;12.13;49.61;99808.28;5052112;28;46162;-72
2022/04/08 03:31:49;;;;;;;;;2.67;0.00;;;;;12.14;48.63;99806.34;5052878;28;45680;-73
2022/04/08 03:34:14;;;;;;;;;2.00;1.00;;;;;12.09;49.40;99800.75;5052763;28;45394;-71
2022/04/08 03:36:39;;;;;;;;;1.67;1.00;;;;;12.10;49.36;99807.94;5053024;28;45600;-71
2022/04/08 03:39:05;;;;;;;;;2.00;0.00;;;;;12.05;50.04;99802.31;5052132;28;45909;-71
2022/04/08 03:41:30;;;;;;;;;0.67;0.67;;;;;12.10;50.71;99806.00;5052949;28;45397;-71
2022/04/08 03:43:56;;;;;;;;;1.33;1.00;;;;;12.08;50.21;99797.19;5062594;28;45359;-73
2022/04/08 03:46:21;;;;;;;;;0.00;0.00;;;;;12.11;50.72;99787.59;5073516;28;45362;-72
2022/04/08 03:48:46;;;;;;;;;0.00;0.00;;;;;12.14;50.68;99787.09;5072810;28;45579;-72
2022/04/08 03:51:12;;;;;;;;;4.00;1.33;;;;;12.11;51.01;99787.59;5072898;28;45332;-72
2022/04/08 03:53:37;;;;;;;;;3.00;0.33;;;;;12.20;50.88;99772.41;5073465;28;45430;-72
2022/04/08 03:56:05;;;;;;;;;0.33;0.00;;;;;12.17;51.19;99759.13;5065746;28;45401;-72
2022/04/08 03:58:30;;;;;;;;;6.67;0.00;;;;;12.23;51.37;99768.31;5052206;28;45754;-73
2022/04/08 04:00:59;;;;;;;;;0.67;0.00;;;;;12.17;50.88;99757.25;5052471;28;45717;-70
2022/04/08 04:03:25;;;;;;;;;3.00;0.00;;;;;12.16;51.53;99741.00;5051150;28;45368;-71
2022/04/08 04:05:50;;;;;;;;;0.33;0.00;;;;;12.16;51.79;99746.50;5052368;28;45370;-71
2022/04/08 04:08:18;;;;;;;;;2.00;2.00;;;;;12.10;51.81;99745.53;5049546;28;47284;-71
2022/04/08 04:10:48;;;;;;;;;2.00;0.67;;;;;12.05;52.13;99733.59;5053124;28;45460;-71
2022/04/08 04:13:14;;;;;;;;;4.00;2.67;;;;;12.15;52.19;99731.91;5052574;28;45314;-69
2022/04/08 04:15:39;;;;;;;;;0.67;0.67;;;;;12.16;51.88;99736.31;5052820;28;45718;-71
2022/04/08 04:18:05;;;;;;;;;1.00;1.00;;;;;12.16;52.09;99733.56;5051583;28;46544;-70
2022/04/08 04:20:31;;;;;;;;;1.00;1.00;;;;;12.18;52.54;99717.69;5051346;28;45690;-70
2022/04/08 04:22:56;;;;;;;;;1.00;1.00;;;;;12.19;52.48;99724.84;5048728;28;45534;-70
2022/04/08 04:25:22;;;;;;;;;2.00;1.67;;;;;12.17;53.83;99713.25;5050441;28;45668;-71
2022/04/08 04:27:48;;;;;;;;;1.00;1.00;;;;;12.18;54.58;99714.94;5051208;28;46883;-70
2022/04/08 04:30:13;;;;;;;;;3.00;2.00;;;;;12.15;54.45;99712.66;5050926;28;45515;-72
2022/04/08 04:32:39;;;;;;;;;28.67;26.33;;;;;12.05;55.06;99689.63;5060825;28;45373;-71
2022/04/08 04:35:08;;;;;;;;;11.00;10.33;;;;;12.07;54.87;99704.81;5052004;28;45733;-74
2022/04/08 04:37:36;;;;;;;;;12.67;11.67;;;;;12.06;55.27;99703.13;5053189;28;46564;-73
2022/04/08 04:40:03;;;;;;;;;14.33;12.33;;;;;12.04;54.89;99691.56;5054422;28;45953;-72
2022/04/08 04:42:29;;;;;;;;;12.00;9.00;;;;;12.03;55.09;99687.13;5051880;28;45785;-74
2022/04/08 04:44:57;;;;;;;;;6.00;4.33;;;;;12.05;55.13;99679.50;5069358;28;45635;-72
2022/04/08 04:47:23;;;;;;;;;5.33;4.00;;;;;12.06;54.89;99678.41;5071722;28;45350;-72
2022/04/08 04:49:49;;;;;;;;;6.67;5.67;;;;;12.03;55.50;99669.81;5070641;28;45389;-73
2022/04/08 04:52:15;;;;;;;;;7.00;3.67;;;;;12.05;55.76;99654.78;5072094;28;45682;-73
2022/04/08 04:54:43;;;;;;;;;13.67;12.00;;;;;12.00;56.80;99652.72;5071568;28;45428;-73
2022/04/08 04:57:09;;;;;;;;;13.67;9.67;;;;;12.04;56.03;99644.84;5071644;28;45559;-71
2022/04/08 04:59:34;;;;;;;;;19.33;14.00;;;;;12.11;56.36;99631.78;5071489;28;45658;-71
2022/04/08 05:02:00;;;;;;;;;6.33;4.67;;;;;12.12;55.75;99630.69;5059556;28;45638;-71
2022/04/08 05:04:25;;;;;;;;;8.67;5.67;;;;;12.07;56.14;99622.38;5068630;28;45636;-70
2022/04/08 05:06:51;;;;;;;;;1.67;1.00;;;;;12.06;54.93;99617.94;5052249;28;46536;-71
2022/04/08 05:09:16;;;;;;;;;1.00;1.00;;;;;12.06;54.71;99620.69;5034354;28;45749;-73
2022/04/08 05:11:42;;;;;;;;;2.67;1.33;;;;;12.06;55.01;99604.19;5060708;28;45477;-72
2022/04/08 05:14:08;;;;;;;;;3.00;0.00;;;;;12.05;55.16;99598.97;5051992;28;45414;-70
2022/04/08 05:16:33;;;;;;;;;1.33;0.00;;;;;11.98;54.53;99588.13;5050509;28;48011;-73
2022/04/08 05:18:58;;;;;;;;;4.00;3.33;;;;;11.98;55.67;99590.88;5051903;28;45365;-71
2022/04/08 05:21:24;;;;;;;;;2.00;1.00;;;;;11.92;54.99;99578.09;5052030;28;45293;-73
2022/04/08 05:23:49;;;;;;;;;3.00;2.00;;;;;11.93;55.51;99579.78;5057803;28;45752;-72
2022/04/08 05:26:15;;;;;;;;;3.67;2.67;;;;;11.94;55.67;99571.28;5057203;28;46386;-73
2022/04/08 05:28:41;;;;;;;;;4.00;4.00;;;;;11.94;55.84;99570.47;5058598;28;45935;-73
2022/04/08 05:31:06;;;;;;;;;4.33;3.00;;;;;11.92;56.53;99562.44;5054451;28;45900;-73
2022/04/08 05:33:32;;;;;;;;;4.67;4.67;;;;;11.96;55.00;99560.03;5056458;28;45841;-73
2022/04/08 05:35:57;;;;;;;;;4.00;1.33;;;;;11.98;55.04;99555.97;5051479;28;45769;-72
2022/04/08 05:38:23;;;;;;;;;1.67;1.67;;;;;12.07;54.11;99555.59;5059546;28;45697;-73
2022/04/08 05:40:49;;;;;;;;;5.00;4.00;;;;;11.98;54.94;99542.25;5067358;28;46117;-74
2022/04/08 05:43:15;;;;;;;;;4.00;2.00;;;;;12.09;55.46;99543.25;5049509;28;45658;-73
2022/04/08 05:45:41;;;;;;;;;2.00;2.00;;;;;12.13;54.55;99538.09;5047618;28;46147;-74
2022/04/08 05:48:07;;;;;;;;;1.33;1.33;;;;;12.11;54.92;99529.25;5045713;28;45756;-74
2022/04/08 05:50:33;;;;;;;;;2.33;2.33;;;;;12.14;54.16;99526.84;5038743;28;45547;-71
2022/04/08 05:52:59;;;;;;;;;1.67;1.00;;;;;12.17;54.31;99520.84;5031863;28;46107;-72
2022/04/08 05:55:24;;;;;;;;;0.00;0.00;;;;;12.22;53.83;99519.28;5065056;28;46081;-72
2022/04/08 05:57:53;;;;;;;;;3.00;1.00;;;;;12.23;53.36;99518.19;5070954;28;45389;-74
2022/04/08 06:00:20;;;;;;;;;1.00;1.00;;;;;12.23;53.73;99515.44;5070132;28;46086;-73
2022/04/08 06:02:47;;;;;;;;;0.33;0.33;;;;;12.21;53.49;99504.69;5052930;28;45506;-71
2022/04/08 06:05:20;;;;;;;;;0.00;0.00;;;;;11.98;53.72;99497.47;5053428;28;46168;-72
2022/04/08 06:07:54;;;;;;;;;1.00;1.00;;;;;11.86;53.59;99499.41;5053452;28;45640;-72
2022/04/08 06:10:22;;;;;;;;;1.00;0.00;;;;;11.81;53.96;99491.91;5053859;28;45404;-71
2022/04/08 06:12:48;;;;;;;;;0.00;0.00;;;;;11.76;55.08;99489.91;5049587;28;47177;-72
2022/04/08 06:15:14;;;;;;;;;0.67;0.67;;;;;11.85;54.97;99487.56;5054079;28;46104;-72
2022/04/08 06:17:40;;;;;;;;;3.00;1.00;;;;;11.91;55.98;99485.75;5056480;28;45723;-72
2022/04/08 06:20:07;;;;;;;;;3.00;1.33;;;;;11.89;56.22;99474.19;5036269;28;45538;-71
2022/04/08 06:22:33;;;;;;;;;1.00;0.00;;;;;11.92;56.16;99459.97;5051382;28;45837;-74
2022/04/08 06:24:58;;;;;;;;;2.67;2.67;;;;;11.87;56.63;99466.22;5031704;28;46832;-75
2022/04/08 06:27:23;;;;;;;;;1.00;1.00;;;;;11.96;56.91;99450.16;5035021;28;45994;-74
2022/04/08 06:29:49;;;;;;;;;3.00;1.00;;;;;12.03;56.62;99450.00;5053249;28;45692;-73
2022/04/08 06:32:14;;;;;;;;;2.00;2.00;;;;;11.95;56.94;99441.09;5052316;28;45965;-73
2022/04/08 06:34:40;;;;;;;;;8.00;4.33;;;;;12.03;55.59;99439.81;5047505;28;45841;-73
2022/04/08 06:37:05;;;;;;;;;1.33;1.00;;;;;12.05;54.44;99436.81;5052973;28;45696;-72
2022/04/08 06:39:31;;;;;;;;;1.00;1.00;;;;;11.94;54.96;99431.16;5052769;28;45651;-73
2022/04/08 06:41:57;;;;;;;;;1.67;1.00;;;;;11.94;55.70;99431.16;5051232;28;45808;-73
2022/04/08 06:44:23;;;;;;;;;0.00;0.00;;;;;12.02;55.63;99435.44;5052347;28;46086;-72
2022/04/08 06:46:48;;;;;;;;;0.67;0.67;;;;;12.03;55.56;99433.50;5050675;28;45375;-72
2022/04/08 06:49:13;;;;;;;;;0.33;0.33;;;;;11.97;53.86;99433.41;5051140;28;45547;-72
2022/04/08 06:51:39;;;;;;;;;0.00;0.00;;;;;11.98;53.85;99434.25;5039350;28;46026;-73
2022/04/08 06:54:04;;;;;;;;;4.33;2.00;;;;;11.89;54.18;99430.25;5070516;28;46432;-75
2022/04/08 06:56:30;;;;;;;;;1.00;1.00;;;;;11.83;54.31;99437.56;5060306;28;45416;-73
2022/04/08 06:58:55;;;;;;;;;1.33;1.33;;;;;11.76;55.83;99437.72;5034011;28;45674;-74
2022/04/08 07:01:20;;;;;;;;;1.00;1.00;;;;;11.66;55.22;99432.03;5051741;28;45608;-77
2022/04/08 07:03:46;;;;;;;;;1.00;1.00;;;;;11.63;56.83;99435.28;5051659;28;46858;-76
2022/04/08 07:06:11;;;;;;;;;3.33;2.00;;;;;11.55;56.78;99438.47;5051705;28;45732;-76
2022/04/08 07:08:37;;;;;;;;;0.33;0.33;;;;;11.49;55.94;99441.09;5052262;28;45702;-76
2022/04/08 07:11:02;;;;;;;;;0.00;0.00;;;;;11.46;55.15;99430.59;5051387;28;45380;-74
2022/04/08 07:13:27;;;;;;;;;1.33;1.00;;;;;11.49;55.62;99423.78;5051283;28;46287;-76
2022/04/08 07:15:54;;;;;;;;;0.33;0.00;;;;;11.43;55.28;99422.03;5052079;28;45653;-76
2022/04/08 07:18:21;;;;;;;;;0.00;0.00;;;;;11.32;57.93;99421.03;5034311;28;45384;-76
2022/04/08 07:20:47;;;;;;;;;2.00;2.00;;;;;11.26;56.87;99397.31;5048737;28;45976;-77
2022/04/08 07:23:12;;;;;;;;;3.00;2.33;;;;;11.21;56.35;99406.31;5041045;28;45737;-78
2022/04/08 07:25:39;;;;;;;;;3.00;2.00;;;;;11.16;56.09;99392.47;5048118;28;45907;-78
2022/04/08 07:28:05;;;;;;;;;2.00;2.00;;;;;11.09;56.89;99389.88;5032532;28;45585;-79
2022/04/08 07:30:30;;;;;;;;;4.33;3.00;;;;;11.03;56.87;99381.78;5049188;28;45311;-78
2022/04/08 07:32:56;;;;;;;;;2.67;1.00;;;;;10.97;57.43;99388.25;5017463;28;47364;-78
2022/04/08 07:35:25;;;;;;;;;2.67;1.33;;;;;10.85;57.82;99363.63;5051488;28;45805;-77
2022/04/08 07:37:51;;;;;;;;;2.00;2.00;;;;;10.72;58.18;99354.63;5052036;28;45559;-77
2022/04/08 07:40:17;;;;;;;;;2.00;2.00;;;;;10.63;58.57;99356.09;5051811;28;45935;-76
2022/04/08 07:42:42;;;;;;;;;1.67;1.67;;;;;10.52;59.57;99360.50;5050970;28;45964;-76
2022/04/08 07:45:09;;;;;;;;;2.00;2.00;;;;;10.30;67.04;99349.34;5051353;28;45828;-77
2022/04/08 07:47:34;;;;;;;;;1.00;0.00;;;;;10.04;66.31;99323.31;5015395;28;45540;-75
2022/04/08 07:50:05;;;;;;;;;2.67;2.00;;;;;9.72;78.22;99332.72;5049775;28;45646;-76
2022/04/08 07:52:30;;;;;;;;;2.33;2.00;;;;;9.38;75.85;99323.44;5050803;28;45843;-76
2022/04/08 07:54:56;;;;;;;;;4.00;2.00;;;;;-147.47;100.00;64613.53;5050790;28;45820;-76
2022/04/08 07:57:22;;;;;;;;;5.00;2.00;;;;;-147.47;100.00;64613.53;5051427;28;45866;-75
2022/04/08 07:59:48;;;;;;;;;2.00;2.00;;;;;-147.47;100.00;64613.53;5053830;28;45485;-76
2022/04/08 08:02:17;;;;;;;;;1.67;0.33;;;;;-147.47;100.00;64613.53;5058356;28;45925;-76
2022/04/08 08:04:42;;;;;;;;;2.00;0.00;;;;;-147.47;100.00;64613.53;5058789;28;45823;-77
2022/04/08 08:07:08;;;;;;;;;2.00;1.00;;;;;-147.47;100.00;64613.53;5047382;28;45651;-80
2022/04/08 08:09:33;;;;;;;;;4.33;1.00;;;;;-147.47;100.00;64613.53;5051629;28;45480;-78
2022/04/08 08:12:00;;;;;;;;;3.00;3.00;;;;;-147.47;100.00;64613.53;5051246;28;46263;-78
2022/04/08 08:14:26;;;;;;;;;5.00;1.00;;;;;-147.47;100.00;64613.53;5051486;28;45411;-76
2022/04/08 08:16:51;;;;;;;;;2.67;2.67;;;;;-147.47;100.00;64613.53;5050864;28;45459;-75
2022/04/08 08:19:17;;;;;;;;;1.00;1.00;;;;;-147.47;100.00;64613.53;5050870;28;45733;-77
2022/04/08 08:21:42;;;;;;;;;2.00;1.00;;;;;-147.47;100.00;64613.53;5033546;28;46223;-78
2022/04/08 08:24:08;;;;;;;;;2.00;2.00;;;;;-147.47;100.00;64613.53;5050276;28;45504;-76
2022/04/08 08:26:33;;;;;;;;;3.33;2.67;;;;;-147.47;100.00;64613.53;5033769;28;45748;-77
2022/04/08 08:28:59;;;;;;;;;1.00;1.00;;;;;-147.47;100.00;64613.53;5033791;28;45893;-76
2022/04/08 08:31:25;;;;;;;;;1.00;1.00;;;;;-147.47;100.00;64613.53;5051416;28;45408;-75
2022/04/08 08:33:50;;;;;;;;;1.00;1.00;;;;;-147.47;100.00;64613.53;5050353;28;45334;-77
2022/04/08 08:36:16;;;;;;;;;2.33;2.33;;;;;-147.47;100.00;64613.53;5046924;28;45416;-76
2022/04/08 08:38:42;;;;;;;;;3.00;2.67;;;;;-147.47;100.00;64613.53;5056253;28;45825;-75
2022/04/08 08:41:09;;;;;;;;;1.67;1.67;;;;;-147.47;100.00;64613.53;5049904;28;45763;-78
2022/04/08 08:43:35;;;;;;;;;1.00;0.33;;;;;-147.47;100.00;64613.53;5058504;28;45478;-77
2022/04/08 08:46:04;;;;;;;;;2.50;2.00;;;;;-147.47;100.00;64613.53;4329918;28;3407644;-77
2022/04/08 08:49:19;;;;;;;;;;;;;;;-147.47;100.00;64613.53;1370199;28;114642264;-78
2022/04/08 08:51:55;;;;;;;;;3.50;1.00;;;;;-147.47;100.00;64613.53;4189140;28;6710770;-76
2022/04/08 08:54:24;;;;;;;;;4.25;3.50;;;;;-147.47;100.00;64613.53;3882836;28;10058771;-76
2022/04/08 08:57:02;;;;;;;;;5.00;2.00;;;;;-147.47;100.00;64613.53;2935181;28;7699563;-78
2022/04/08 08:59:29;;;;;;;;;5.75;3.50;;;;;-147.47;100.00;64613.53;3358546;28;10685239;-78
2022/04/08 09:02:05;;;;;;;;;3.00;2.00;;;;;-147.47;100.00;64613.53;4376201;28;2712682;-78
2022/04/08 09:04:31;;;;;;;;;10.33;4.00;;;;;-147.47;100.00;64613.53;3087628;28;21866224;-77
2022/04/08 09:06:57;;;;;;;;;2.75;2.75;;;;;-147.47;100.00;64613.53;3670401;28;25667412;-78
2022/04/08 09:09:32;;;;;;;;;8.67;6.00;;;;;-147.47;100.00;64613.53;4831594;28;1104177;-78
2022/04/08 09:12:12;;;;;;;;;4.00;1.60;;;;;-147.47;100.00;64613.53;4927115;28;955750;-77
2022/04/08 09:14:38;;;;;;;;;1.00;1.00;;;;;-147.47;100.00;64613.53;4895696;28;1172828;-77
2022/04/08 09:17:03;;;;;;;;;1.67;1.67;;;;;-147.47;100.00;64613.53;4132728;28;3916063;-76
2022/04/08 09:19:33;;;;;;;;;3.00;2.00;;;;;-147.47;100.00;64613.53;2392447;28;56312939;-75
2022/04/08 09:22:05;;;;;;;;;3.00;2.00;;;;;-147.47;100.00;64613.53;3349763;28;12730606;-74
2022/04/08 09:24:30;;;;;;;;;3.67;2.00;;;;;-147.47;100.00;64613.53;4160785;28;11681688;-73
2022/04/08 09:26:57;;;;;;;;;2.50;1.00;;;;;-147.47;100.00;64613.53;3826372;28;12669183;-76
2022/04/08 09:29:23;;;;;;;;;2.67;2.33;;;;;-147.47;100.00;64613.53;4717690;28;9711576;-77
2022/04/08 09:31:51;;;;;;;;;1.00;1.00;;;;;-147.47;100.00;64613.53;4536217;28;13567383;-75
2022/04/08 09:35:20;;;;;;;;;3.67;2.00;;;;;-147.47;100.00;64613.53;4258407;28;7069369;-75
2022/04/08 09:46:28;;;;;;;;;;;;;;;-147.47;100.00;64613.53;1850691;28;261086016;-75
2022/04/08 09:49:22;;;;;;;;;3.00;3.00;;;;;-147.47;100.00;64613.53;1683235;28;39430873;-76
2022/04/08 09:51:50;;;;;;;;;4.00;4.00;;;;;-147.47;100.00;64613.53;2485063;28;35930671;-78
2022/04/08 09:54:20;;;;;;;;;5.00;2.67;;;;;-147.47;100.00;64613.53;4883576;28;1750653;-79
2022/04/08 09:56:46;;;;;;;;;6.33;2.33;;;;;-147.47;100.00;64613.53;4989934;28;1355433;-77
2022/04/08 09:59:12;;;;;;;;;3.67;3.00;;;;;-147.47;100.00;64613.53;5012134;28;1042085;-78
2022/04/08 10:01:39;;;;;;;;;6.33;5.00;;;;;-147.47;100.00;64613.53;5060766;28;44536;-77
2022/04/08 10:04:06;;;;;;;;;5.33;5.33;;;;;-147.47;100.00;64613.53;5069232;28;28444;-77
2022/04/08 10:06:32;;;;;;;;;6.67;4.33;;;;;-147.47;100.00;64613.53;5087544;28;29425;-78
2022/04/08 10:08:59;;;;;;;;;6.33;5.00;;;;;-147.47;100.00;64613.53;5092645;28;8931;-77
2022/04/08 10:11:31;;;;;;;;;10.33;5.33;;;;;-147.47;100.00;64613.53;5086617;28;8914;-74
2022/04/08 10:14:13;;;;;;;;;5.75;5.75;;;;;-147.47;100.00;64613.53;5089948;28;8856;-77
2022/04/08 10:16:39;;;;;;;;;5.25;4.25;;;;;-147.47;100.00;64613.53;5089414;28;8863;-76
2022/04/08 10:19:07;;;;;;;;;4.50;4.50;;;;;-147.47;100.00;64613.53;5089813;28;8837;-77
2022/04/08 10:21:38;;;;;;;;;6.75;6.75;;;;;-147.47;100.00;64613.53;5090063;28;8779;-76
2022/04/08 10:24:09;;;;;;;;;6.00;5.50;;;;;-147.47;100.00;64613.53;5089910;28;8748;-75
2022/04/08 10:26:34;;;;;;;;;5.00;3.00;;;;;-147.47;100.00;64613.53;5069116;28;8771;-75
2022/04/08 10:29:09;;;;;;;;;8.00;5.00;;;;;-147.47;100.00;64613.53;5069129;28;8810;-74
2022/04/08 10:31:35;;;;;;;;;4.00;3.50;;;;;-147.47;100.00;64613.53;5069112;28;8790;-75
2022/04/08 10:34:04;;;;;;;;;5.00;5.00;;;;;-147.47;100.00;64613.53;5052134;28;8810;-75
2022/04/08 10:36:38;;;;;;;;;6.67;5.33;;;;;-147.47;100.00;64613.53;5068893;28;8767;-75
2022/04/08 10:39:14;;;;;;;;;6.00;5.00;;;;;-147.47;100.00;64613.53;5066332;28;9830;-75
2022/04/08 10:42:08;;;;;;;;;5.75;5.00;;;;;-147.47;100.00;64613.53;5065985;28;8997;-74
2022/04/08 10:44:39;;;;;;;;;6.33;3.00;;;;;-147.47;100.00;64613.53;5068873;28;8767;-75
2022/04/08 10:47:16;;;;;;;;;4.67;4.00;;;;;-147.47;100.00;64613.53;5068798;28;8862;-74
2022/04/08 10:50:10;;;;;;;;;2.00;2.00;;;;;-147.47;100.00;64613.53;5062011;28;8938;-75
2022/04/08 10:52:40;;;;;;;;;2.75;2.75;;;;;-147.47;100.00;64613.53;5068532;28;8751;-77
2022/04/08 10:55:09;;;;;;;;;2.67;2.67;;;;;-147.47;100.00;64613.53;5059445;28;8777;-76
2022/04/08 10:57:39;;;;;;;;;3.00;1.75;;;;;-147.47;100.00;64613.53;5067551;28;8845;-77
2022/04/08 11:00:07;;;;;;;;;1.00;1.00;;;;;-147.47;100.00;64613.53;5070003;28;8719;-77
2022/04/08 11:02:40;;;;;;;;;1.50;1.50;;;;;-147.47;100.00;64613.53;5069833;28;9007;-77
2022/04/08 11:05:11;;;;;;;;;2.25;2.00;;;;;-147.47;100.00;64613.53;5070193;28;8822;-77
2022/04/08 11:07:44;;;;;;;;;2.25;2.25;;;;;-147.47;100.00;64613.53;5041297;28;8759;-77
2022/04/08 11:10:15;;;;;;;;;2.00;2.00;;;;;-147.47;100.00;64613.53;5068154;28;28788;-73
2022/04/08 11:12:51;;;;;;;;;4.00;3.00;;;;;-147.47;100.00;64613.53;5032781;28;28858;-74
2022/04/08 11:15:23;;;;;;;;;5.00;2.33;;;;;-147.47;100.00;64613.53;5049430;28;28513;-75
2022/04/08 11:17:50;;;;;;;;;5.00;3.67;;;;;-147.47;100.00;64613.53;5031586;28;28822;-75
2022/04/08 11:22:52;;;;;;;;;5.33;5.33;;;;;-147.47;100.00;64613.53;5086596;28;28752;-73
2022/04/08 11:25:26;;;;;;;;;6.00;6.00;;;;;-147.47;100.00;64613.53;5090277;27;28576;-72
2022/04/08 11:28:01;;;;;;;;;8.00;8.00;;;;;-147.47;100.00;64613.53;5108099;27;28688;-73
2022/04/08 11:30:28;;;;;;;;;7.67;7.67;;;;;-147.47;100.00;64613.53;5088427;27;28851;-73
2022/04/08 11:32:53;;;;;;;;;9.67;7.33;;;;;-147.47;100.00;64613.53;5088114;28;28940;-72
2022/04/08 11:35:19;;;;;;;;;8.33;6.67;;;;;-147.47;100.00;64613.53;5086822;28;28866;-73
2022/04/08 11:37:45;;;;;;;;;5.00;5.00;;;;;-147.47;100.00;64613.53;5085142;28;29424;-70